createdAt,value
2017-12-25T00:00:22.530Z,101981.79
2017-12-25T00:02:51.608Z,101975.12
2017-12-25T00:05:19.930Z,101980.45
2017-12-25T00:07:48.230Z,101980.54
2017-12-25T00:10:16.536Z,101977.04
2017-12-25T00:12:45.650Z,101975.63
2017-12-25T00:15:13.979Z,101977.54
2017-12-25T00:17:42.295Z,101975.70
2017-12-25T00:20:10.582Z,101966.53
2017-12-25T00:22:38.884Z,101968.20
2017-12-25T00:25:07.213Z,101963.28
2017-12-25T00:27:35.526Z,101973.45
2017-12-25T00:30:03.850Z,101963.69
2017-12-25T00:32:32.917Z,101965.11
2017-12-25T00:35:01.234Z,101953.44
2017-12-25T00:37:30.320Z,101952.44
2017-12-25T00:39:58.624Z,101953.69
2017-12-25T00:42:27.579Z,101955.52
2017-12-25T00:44:56.801Z,101943.84
2017-12-25T00:47:25.896Z,101938.30
2017-12-25T00:49:54.216Z,101939.89
2017-12-25T00:52:22.531Z,101941.72
2017-12-25T00:54:50.846Z,101928.46
2017-12-25T00:57:19.145Z,101935.80
2017-12-25T00:59:48.234Z,101928.54
2017-12-25T01:02:17.318Z,101934.71
2017-12-25T01:04:45.628Z,101922.87
2017-12-25T01:07:13.922Z,101922.13
2017-12-25T01:09:42.234Z,101926.88
2017-12-25T01:12:10.563Z,101921.95
2017-12-25T01:14:39.628Z,101927.12
2017-12-25T01:17:07.936Z,101916.27
2017-12-25T01:19:36.996Z,101919.77
2017-12-25T01:22:05.303Z,101913.94
2017-12-25T01:24:33.612Z,101924.53
2017-12-25T01:27:02.727Z,101917.44
2017-12-25T01:29:31.039Z,101909.93
2017-12-25T01:31:59.370Z,101905.92
2017-12-25T01:34:28.452Z,101910.44
2017-12-25T01:36:56.743Z,101891.83
2017-12-25T01:39:25.067Z,101902.17
2017-12-25T01:41:53.373Z,101894.41
2017-12-25T01:44:22.535Z,101896.08
2017-12-25T01:47:06.753Z,101892.50
2017-12-25T01:49:35.840Z,101899.50
2017-12-25T01:52:04.933Z,101890.98
2017-12-25T01:54:36.211Z,101897.91
2017-12-25T01:57:17.859Z,101888.11
2017-12-25T01:59:52.744Z,101881.67
2017-12-25T02:02:21.101Z,101880.19
2017-12-25T02:08:07.041Z,101892.43
2017-12-25T02:10:35.339Z,101890.59
2017-12-25T02:13:03.639Z,101890.00
2017-12-25T02:15:32.695Z,101882.83
2017-12-25T02:18:01.021Z,101882.57
2017-12-25T02:20:29.381Z,101871.36
2017-12-25T02:22:57.703Z,101876.69
2017-12-25T02:25:26.782Z,101881.23
2017-12-25T02:27:55.189Z,101881.12
2017-12-25T02:30:23.517Z,101873.23
2017-12-25T02:32:51.834Z,101874.86
2017-12-25T02:35:20.948Z,101873.52
2017-12-25T02:37:50.032Z,101881.86
2017-12-25T02:40:19.093Z,101869.94
2017-12-25T02:42:47.392Z,101865.84
2017-12-25T02:45:15.687Z,101866.34
2017-12-25T02:47:44.016Z,101862.42
2017-12-25T02:50:12.345Z,101850.20
2017-12-25T02:52:41.437Z,101856.22
2017-12-25T02:55:09.830Z,101858.73
2017-12-25T02:57:38.906Z,101836.20
2017-12-25T03:00:07.341Z,101834.95
2017-12-25T03:02:36.423Z,101832.46
2017-12-25T03:05:05.499Z,101837.55
2017-12-25T03:07:33.885Z,101832.72
2017-12-25T03:10:02.187Z,101833.05
2017-12-25T03:12:31.270Z,101828.22
2017-12-25T03:14:59.631Z,101830.47
2017-12-25T03:17:27.962Z,101821.95
2017-12-25T03:19:57.048Z,101830.37
2017-12-25T03:22:26.113Z,101829.38
2017-12-25T03:24:54.437Z,101816.62
2017-12-25T03:27:23.515Z,101818.12
2017-12-25T03:29:51.821Z,101812.66
2017-12-25T03:32:20.899Z,101820.09
2017-12-25T03:34:49.977Z,101816.17
2017-12-25T03:37:18.283Z,101817.27
2017-12-25T03:39:46.610Z,101815.19
2017-12-25T03:42:14.917Z,101813.19
2017-12-25T03:44:43.219Z,101813.28
2017-12-25T03:47:12.315Z,101819.20
2017-12-25T03:49:40.617Z,101810.16
2017-12-25T03:52:09.696Z,101819.66
2017-12-25T03:54:38.780Z,101813.41
2017-12-25T03:57:07.096Z,101807.41
2017-12-25T03:59:36.161Z,101806.16
2017-12-25T04:02:04.450Z,101799.16
2017-12-25T04:04:33.503Z,101798.33
2017-12-25T04:07:01.815Z,101801.17
2017-12-25T04:09:30.123Z,101786.58
2017-12-25T04:11:58.440Z,101785.00
2017-12-25T04:14:26.747Z,101782.84
2017-12-25T04:16:55.052Z,101777.58
2017-12-25T04:19:23.354Z,101766.91
2017-12-25T04:21:51.668Z,101767.33
2017-12-25T04:24:19.969Z,101768.66
2017-12-25T04:26:48.267Z,101766.83
2017-12-25T04:29:16.590Z,101769.45
2017-12-25T04:31:45.657Z,101757.46
2017-12-25T04:34:13.969Z,101742.72
2017-12-25T04:36:43.041Z,101761.35
2017-12-25T04:39:11.427Z,101769.28
2017-12-25T04:41:40.494Z,101757.70
2017-12-25T04:44:08.785Z,101752.38
2017-12-25T04:46:37.089Z,101752.34
2017-12-25T04:49:05.395Z,101750.67
2017-12-25T04:51:34.449Z,101745.02
2017-12-25T04:54:02.775Z,101744.77
2017-12-25T04:56:31.855Z,101736.44
2017-12-25T04:59:00.189Z,101743.19
2017-12-25T05:01:28.497Z,101746.11
2017-12-25T05:03:57.567Z,101736.53
2017-12-25T05:06:25.885Z,101737.73
2017-12-25T05:08:54.211Z,101740.24
2017-12-25T05:11:23.293Z,101732.75
2017-12-25T05:13:52.358Z,101728.75
2017-12-25T05:16:20.667Z,101735.33
2017-12-25T05:18:49.745Z,101725.99
2017-12-25T05:21:18.085Z,101728.24
2017-12-25T05:23:46.400Z,101721.16
2017-12-25T05:26:14.732Z,101730.32
2017-12-25T05:28:43.807Z,101720.98
2017-12-25T05:31:12.107Z,101709.08
2017-12-25T05:33:40.421Z,101710.66
2017-12-25T05:36:08.735Z,101719.48
2017-12-25T05:38:37.041Z,101712.91
2017-12-25T05:41:05.357Z,101711.07
2017-12-25T05:43:33.653Z,101707.98
2017-12-25T05:46:01.963Z,101718.57
2017-12-25T05:48:30.285Z,101711.57
2017-12-25T05:51:00.034Z,101694.66
2017-12-25T05:53:29.107Z,101709.95
2017-12-25T05:55:57.431Z,101697.53
2017-12-25T05:58:25.736Z,101698.04
2017-12-25T06:00:54.829Z,101695.91
2017-12-25T06:03:23.137Z,101698.16
2017-12-25T06:05:52.223Z,101703.98
2017-12-25T06:08:20.902Z,101694.83
2017-12-25T06:10:49.228Z,101695.66
2017-12-25T06:13:17.598Z,101704.49
2017-12-25T06:15:46.701Z,101702.03
2017-12-25T06:18:15.018Z,101686.74
2017-12-25T06:20:43.347Z,101677.83
2017-12-25T06:23:12.403Z,101691.58
2017-12-25T06:25:40.713Z,101684.99
2017-12-25T06:28:09.053Z,101684.58
2017-12-25T06:30:37.405Z,101679.58
2017-12-25T06:33:06.479Z,101675.58
2017-12-25T06:35:34.797Z,101667.99
2017-12-25T06:38:03.119Z,101677.33
2017-12-25T06:40:31.422Z,101678.16
2017-12-25T06:42:59.735Z,101680.32
2017-12-25T06:45:28.051Z,101671.58
2017-12-25T06:47:56.365Z,101662.75
2017-12-25T06:50:24.675Z,101681.58
2017-12-25T06:52:53.041Z,101660.66
2017-12-25T06:55:22.111Z,101658.09
2017-12-25T06:57:50.406Z,101658.50
2017-12-25T07:00:18.712Z,101652.01
2017-12-25T07:02:47.788Z,101658.91
2017-12-25T07:05:16.111Z,101649.67
2017-12-25T07:07:44.405Z,101647.00
2017-12-25T07:10:12.709Z,101642.59
2017-12-25T07:12:41.811Z,101643.00
2017-12-25T07:15:10.103Z,101654.17
2017-12-25T07:17:38.408Z,101641.42
2017-12-25T07:20:07.470Z,101644.52
2017-12-25T07:22:35.793Z,101640.09
2017-12-25T07:25:04.868Z,101641.42
2017-12-25T07:27:34.079Z,101636.93
2017-12-25T07:30:03.161Z,101642.26
2017-12-25T07:32:31.460Z,101637.84
2017-12-25T07:34:59.764Z,101644.09
2017-12-25T07:37:28.161Z,101642.84
2017-12-25T07:39:57.223Z,101642.43
2017-12-25T07:42:25.564Z,101641.27
2017-12-25T07:44:53.879Z,101639.70
2017-12-25T07:47:22.192Z,101632.58
2017-12-25T07:49:51.266Z,101632.25
2017-12-25T07:52:20.352Z,101635.50
2017-12-25T07:54:48.678Z,101629.51
2017-12-25T07:57:16.989Z,101623.10
2017-12-25T07:59:45.298Z,101624.77
2017-12-25T08:02:13.616Z,101617.77
2017-12-25T08:04:42.680Z,101627.52
2017-12-25T08:07:11.206Z,101626.59
2017-12-25T08:09:39.523Z,101616.69
2017-12-25T08:12:07.842Z,101618.34
2017-12-25T08:14:36.328Z,101619.50
2017-12-25T08:17:05.329Z,101620.58
2017-12-25T08:19:34.546Z,101617.50
2017-12-25T08:22:03.015Z,101617.30
2017-12-25T08:24:31.316Z,101620.86
2017-12-25T08:26:59.620Z,101621.52
2017-12-25T08:29:27.922Z,101629.77
2017-12-25T08:31:56.230Z,101618.09
2017-12-25T08:34:24.526Z,101620.59
2017-12-25T08:36:53.600Z,101628.52
2017-12-25T08:39:21.910Z,101624.77
2017-12-25T08:41:50.987Z,101621.95
2017-12-25T08:44:19.295Z,101633.08
2017-12-25T08:46:48.365Z,101626.00
2017-12-25T08:49:16.661Z,101624.33
2017-12-25T08:51:45.862Z,101630.25
2017-12-25T08:54:14.222Z,101629.92
2017-12-25T08:56:42.684Z,101640.67
2017-12-25T08:59:10.979Z,101629.98
2017-12-25T09:01:39.265Z,101644.49
2017-12-25T09:04:07.571Z,101638.79
2017-12-25T09:06:35.882Z,101641.80
2017-12-25T09:09:04.188Z,101636.05
2017-12-25T09:11:32.481Z,101640.97
2017-12-25T09:14:00.774Z,101642.39
2017-12-25T09:16:29.062Z,101648.68
2017-12-25T09:18:57.384Z,101651.52
2017-12-25T09:21:25.670Z,101652.77
2017-12-25T09:23:54.018Z,101640.02
2017-12-25T09:26:22.349Z,101645.14
2017-12-25T09:28:50.712Z,101640.56
2017-12-25T09:31:19.034Z,101644.56
2017-12-25T09:33:47.342Z,101639.30
2017-12-25T09:36:15.638Z,101634.46
2017-12-25T09:38:44.725Z,101631.25
2017-12-25T09:41:13.057Z,101627.91
2017-12-25T09:43:41.824Z,101634.18
2017-12-25T09:46:10.886Z,101631.54
2017-12-25T09:48:39.194Z,101632.36
2017-12-25T09:51:08.286Z,101634.34
2017-12-25T09:53:36.606Z,101637.28
2017-12-25T09:56:04.904Z,101626.00
2017-12-25T09:58:33.208Z,101628.99
2017-12-25T10:01:01.515Z,101629.27
2017-12-25T10:03:30.581Z,101635.49
2017-12-25T10:05:58.904Z,101635.33
2017-12-25T10:08:27.949Z,101636.57
2017-12-25T10:10:56.285Z,101636.70
2017-12-25T10:13:25.352Z,101629.89
2017-12-25T10:15:54.490Z,101621.97
2017-12-25T10:18:23.552Z,101617.52
2017-12-25T10:20:51.865Z,101620.84
2017-12-25T10:23:21.062Z,101608.43
2017-12-25T10:25:50.125Z,101610.28
2017-12-25T10:28:18.428Z,101597.99
2017-12-25T10:30:46.735Z,101606.63
2017-12-25T10:33:15.055Z,101589.17
2017-12-25T10:35:43.348Z,101597.50
2017-12-25T10:38:11.661Z,101585.18
2017-12-25T10:40:40.747Z,101581.56
2017-12-25T10:43:09.274Z,101581.50
2017-12-25T10:45:37.586Z,101581.71
2017-12-25T10:48:05.898Z,101585.42
2017-12-25T10:50:34.218Z,101593.19
2017-12-25T10:53:02.509Z,101571.84
2017-12-25T10:55:30.840Z,101569.88
2017-12-25T10:57:59.154Z,101568.58
2017-12-25T11:00:32.965Z,101562.55
2017-12-25T11:03:01.942Z,101557.55
2017-12-25T11:05:31.002Z,101552.53
2017-12-25T11:07:59.314Z,101542.69
2017-12-25T11:10:27.634Z,101542.78
2017-12-25T11:12:55.931Z,101545.56
2017-12-25T11:15:24.257Z,101541.66
2017-12-25T11:17:52.586Z,101528.84
2017-12-25T11:20:21.680Z,101530.77
2017-12-25T11:22:49.982Z,101530.55
2017-12-25T11:25:18.282Z,101523.95
2017-12-25T11:27:46.590Z,101525.94
2017-12-25T11:30:15.690Z,101506.09
2017-12-25T11:32:44.806Z,101506.61
2017-12-25T11:35:13.134Z,101501.78
2017-12-25T11:37:41.472Z,101502.66
2017-12-25T11:40:09.804Z,101499.76
2017-12-25T11:42:38.111Z,101476.62
2017-12-25T11:45:07.190Z,101479.41
2017-12-25T11:47:35.510Z,101483.38
2017-12-25T11:50:04.607Z,101480.98
2017-12-25T11:52:33.717Z,101484.55
2017-12-25T11:55:02.953Z,101470.47
2017-12-25T11:57:31.504Z,101462.80
2017-12-25T12:00:02.102Z,101449.47
2017-12-25T12:02:30.658Z,101437.20
2017-12-25T12:04:59.013Z,101429.31
2017-12-25T12:07:27.401Z,101428.92
2017-12-25T12:09:55.742Z,101421.25
2017-12-25T12:12:24.827Z,101416.20
2017-12-25T12:14:53.133Z,101411.34
2017-12-25T12:17:22.209Z,101395.87
2017-12-25T12:19:50.515Z,101390.69
2017-12-25T12:22:18.827Z,101396.98
2017-12-25T12:24:47.149Z,101388.03
2017-12-25T12:29:49.939Z,101384.41
2017-12-25T12:32:18.326Z,101370.86
2017-12-25T12:34:46.647Z,101365.59
2017-12-25T12:37:14.948Z,101352.44
2017-12-25T12:39:44.031Z,101356.48
2017-12-25T12:42:13.119Z,101347.15
2017-12-25T12:44:41.456Z,101347.34
2017-12-25T12:47:09.859Z,101336.53
2017-12-25T12:49:38.182Z,101335.57
2017-12-25T12:52:07.249Z,101326.67
2017-12-25T12:54:35.547Z,101328.91
2017-12-25T12:57:03.870Z,101330.05
2017-12-25T12:59:32.195Z,101328.47
2017-12-25T13:02:00.488Z,101331.41
2017-12-25T13:04:28.793Z,101327.54
2017-12-25T13:06:57.883Z,101313.40
2017-12-25T13:09:26.934Z,101311.96
2017-12-25T13:11:55.232Z,101311.62
2017-12-25T13:14:23.528Z,101306.65
2017-12-25T13:16:52.676Z,101311.42
2017-12-25T13:19:20.982Z,101299.23
2017-12-25T13:21:49.285Z,101306.94
2017-12-25T13:24:17.619Z,101283.21
2017-12-25T13:26:46.713Z,101289.32
2017-12-25T13:29:15.020Z,101284.91
2017-12-25T13:31:43.329Z,101276.09
2017-12-25T13:34:12.387Z,101270.98
2017-12-25T13:36:40.699Z,101272.92
2017-12-25T13:39:09.014Z,101264.69
2017-12-25T13:41:38.158Z,101266.50
2017-12-25T13:44:07.225Z,101265.17
2017-12-25T13:46:36.313Z,101258.19
2017-12-25T13:49:05.428Z,101254.60
2017-12-25T13:51:33.822Z,101250.61
2017-12-25T13:54:02.130Z,101238.38
2017-12-25T13:56:30.449Z,101244.81
2017-12-25T13:58:59.528Z,101243.16
2017-12-25T14:01:27.837Z,101238.51
2017-12-25T14:03:56.913Z,101236.32
2017-12-25T14:06:25.221Z,101224.60
2017-12-25T14:08:54.949Z,101224.52
2017-12-25T14:11:23.240Z,101228.19
2017-12-25T14:13:51.555Z,101220.52
2017-12-25T14:16:19.864Z,101209.44
2017-12-25T14:18:48.173Z,101214.22
2017-12-25T14:21:17.109Z,101206.17
2017-12-25T14:23:45.418Z,101208.28
2017-12-25T14:26:14.492Z,101204.77
2017-12-25T14:28:42.799Z,101194.80
2017-12-25T14:31:11.092Z,101194.14
2017-12-25T14:33:40.158Z,101183.08
2017-12-25T14:36:08.451Z,101186.75
2017-12-25T14:38:36.751Z,101187.25
2017-12-25T14:41:05.049Z,101175.53
2017-12-25T14:43:34.127Z,101168.23
2017-12-25T14:46:02.432Z,101175.42
2017-12-25T14:48:31.539Z,101162.20
2017-12-25T14:50:59.841Z,101171.79
2017-12-25T14:53:28.135Z,101167.88
2017-12-25T14:55:56.431Z,101157.14
2017-12-25T14:58:25.503Z,101161.41
2017-12-25T15:00:53.795Z,101155.34
2017-12-25T15:03:22.103Z,101155.84
2017-12-25T15:05:50.401Z,101147.20
2017-12-25T15:08:19.450Z,101152.72
2017-12-25T15:10:47.747Z,101142.98
2017-12-25T15:13:16.055Z,101138.58
2017-12-25T15:15:45.200Z,101141.41
2017-12-25T15:18:13.487Z,101138.08
2017-12-25T15:20:41.788Z,101132.88
2017-12-25T15:23:10.084Z,101132.56
2017-12-25T15:25:38.414Z,101126.20
2017-12-25T15:28:06.707Z,101119.41
2017-12-25T15:30:35.028Z,101110.12
2017-12-25T15:33:03.339Z,101114.71
2017-12-25T15:35:32.403Z,101114.30
2017-12-25T15:38:00.747Z,101098.50
2017-12-25T15:40:29.049Z,101096.23
2017-12-25T15:42:57.330Z,101092.00
2017-12-25T15:45:25.639Z,101093.10
2017-12-25T15:47:53.958Z,101088.78
2017-12-25T15:50:22.375Z,101081.81
2017-12-25T15:52:50.684Z,101079.00
2017-12-25T15:55:18.984Z,101074.19
2017-12-25T15:57:48.055Z,101068.95
2017-12-25T16:00:16.363Z,101071.97
2017-12-25T16:02:45.483Z,101074.52
2017-12-25T16:05:13.783Z,101073.60
2017-12-25T16:07:42.081Z,101063.14
2017-12-25T16:10:10.383Z,101062.31
2017-12-25T16:12:38.697Z,101065.06
2017-12-25T16:15:07.756Z,101063.41
2017-12-25T16:17:36.051Z,101046.29
2017-12-25T16:20:04.361Z,101047.80
2017-12-25T16:22:33.417Z,101029.03
2017-12-25T16:25:01.721Z,101029.53
2017-12-25T16:27:30.043Z,101025.52
2017-12-25T16:29:58.330Z,101018.41
2017-12-25T16:32:26.637Z,101013.26
2017-12-25T16:34:54.959Z,101013.20
2017-12-25T16:37:24.014Z,100997.75
2017-12-25T16:39:52.317Z,101006.95
2017-12-25T16:42:20.623Z,101003.55
2017-12-25T16:44:48.957Z,100990.19
2017-12-25T16:47:17.269Z,101000.13
2017-12-25T16:49:45.579Z,100999.95
2017-12-25T16:52:15.482Z,101004.89
2017-12-25T16:54:44.544Z,100993.20
2017-12-25T16:57:12.860Z,100989.47
2017-12-25T16:59:41.160Z,100996.92
2017-12-25T17:02:09.466Z,100986.55
2017-12-25T17:04:38.469Z,100979.84
2017-12-25T17:07:06.764Z,100991.34
2017-12-25T17:09:35.081Z,100995.56
2017-12-25T17:12:04.148Z,100993.28
2017-12-25T17:14:32.468Z,101015.13
2017-12-25T17:17:02.347Z,101014.56
2017-12-25T17:19:30.671Z,101015.95
2017-12-25T17:21:59.740Z,101009.20
2017-12-25T17:24:28.033Z,101000.25
2017-12-25T17:26:56.337Z,101002.56
2017-12-25T17:29:25.424Z,100994.83
2017-12-25T17:31:54.506Z,101004.36
2017-12-25T17:34:22.816Z,100993.55
2017-12-25T17:36:51.872Z,100985.58
2017-12-25T17:39:20.188Z,100990.16
2017-12-25T17:41:49.264Z,100985.44
2017-12-25T17:44:17.563Z,100975.24
2017-12-25T17:46:46.625Z,100969.13
2017-12-25T17:49:14.931Z,100969.25
2017-12-25T17:51:43.230Z,100965.35
2017-12-25T17:54:11.544Z,100960.45
2017-12-25T17:56:39.838Z,100958.62
2017-12-25T17:59:08.152Z,100962.90
2017-12-25T18:01:36.442Z,100959.65
2017-12-25T18:04:04.762Z,100952.59
2017-12-25T18:06:33.056Z,100944.63
2017-12-25T18:09:01.378Z,100940.81
2017-12-25T18:11:30.476Z,100937.23
2017-12-25T18:13:58.783Z,100928.73
2017-12-25T18:16:27.878Z,100922.18
2017-12-25T18:18:56.962Z,100931.57
2017-12-25T18:21:25.272Z,100937.71
2017-12-25T18:23:54.333Z,100921.45
2017-12-25T18:26:22.665Z,100922.36
2017-12-25T18:28:50.976Z,100907.09
2017-12-25T18:31:19.277Z,100905.35
2017-12-25T18:33:47.587Z,100894.67
2017-12-25T18:36:16.660Z,100888.20
2017-12-25T18:38:44.974Z,100881.73
2017-12-25T18:41:14.058Z,100875.09
2017-12-25T18:43:43.132Z,100881.41
2017-12-25T18:46:11.434Z,100876.19
2017-12-25T18:48:39.752Z,100874.80
2017-12-25T18:51:08.824Z,100864.35
2017-12-25T18:53:37.950Z,100863.20
2017-12-25T18:56:06.253Z,100857.06
2017-12-25T18:58:34.559Z,100848.12
2017-12-25T19:01:02.870Z,100854.55
2017-12-25T19:03:31.944Z,100849.51
2017-12-25T19:06:00.240Z,100846.62
2017-12-25T19:08:28.608Z,100841.98
2017-12-25T19:10:57.964Z,100827.55
2017-12-25T19:13:26.294Z,100827.41
2017-12-25T19:15:54.707Z,100813.10
2017-12-25T19:18:23.028Z,100818.68
2017-12-25T19:20:51.346Z,100809.83
2017-12-25T19:23:19.636Z,100800.39
2017-12-25T19:25:47.968Z,100793.78
2017-12-25T19:28:16.320Z,100797.97
2017-12-25T19:30:45.392Z,100778.50
2017-12-25T19:33:13.730Z,100773.41
2017-12-25T19:35:42.046Z,100783.28
2017-12-25T19:38:10.340Z,100780.92
2017-12-25T19:40:38.806Z,100780.09
2017-12-25T19:43:07.902Z,100761.70
2017-12-25T19:45:36.220Z,100757.80
2017-12-25T19:48:05.302Z,100753.91
2017-12-25T19:50:33.679Z,100747.95
2017-12-25T19:53:02.134Z,100740.84
2017-12-25T19:55:30.470Z,100738.45
2017-12-25T19:57:59.534Z,100726.63
2017-12-25T20:00:27.878Z,100728.99
2017-12-25T20:02:56.636Z,100716.08
2017-12-25T20:05:25.850Z,100704.81
2017-12-25T20:07:54.917Z,100703.66
2017-12-25T20:10:23.256Z,100705.70
2017-12-25T20:12:51.900Z,100692.94
2017-12-25T20:15:20.678Z,100689.55
2017-12-25T20:17:49.278Z,100682.09
2017-12-25T20:20:17.614Z,100671.56
2017-12-25T20:22:45.909Z,100682.44
2017-12-25T20:25:14.196Z,100677.64
2017-12-25T20:27:43.036Z,100674.48
2017-12-25T20:30:12.812Z,100664.88
2017-12-25T20:32:41.248Z,100659.66
2017-12-25T20:35:10.161Z,100652.61
2017-12-25T20:37:39.147Z,100645.33
2017-12-25T20:40:08.236Z,100648.78
2017-12-25T20:42:37.123Z,100639.67
2017-12-25T20:45:06.286Z,100645.66
2017-12-25T20:47:35.199Z,100641.89
2017-12-25T20:50:04.784Z,100621.73
2017-12-25T20:52:33.190Z,100625.66
2017-12-25T20:55:01.502Z,100606.36
2017-12-25T20:57:31.125Z,100611.06
2017-12-25T21:00:00.922Z,100593.42
2017-12-25T21:02:30.094Z,100595.84
2017-12-25T21:04:58.969Z,100592.30
2017-12-25T21:07:27.338Z,100573.98
2017-12-25T21:09:56.294Z,100595.22
2017-12-25T21:12:26.081Z,100591.75
2017-12-25T21:14:55.047Z,100577.81
2017-12-25T21:17:23.466Z,100572.01
2017-12-25T21:19:51.794Z,100566.97
2017-12-25T21:22:20.111Z,100548.92
2017-12-25T21:24:48.507Z,100536.23
2017-12-25T21:27:17.607Z,100544.59
2017-12-25T21:29:45.960Z,100536.62
2017-12-25T21:32:14.281Z,100520.95
2017-12-25T21:34:42.605Z,100523.81
2017-12-25T21:37:10.890Z,100525.69
2017-12-25T21:39:39.201Z,100521.84
2017-12-25T21:42:07.533Z,100512.67
2017-12-25T21:44:35.980Z,100531.28
2017-12-25T21:47:05.081Z,100519.88
2017-12-25T21:49:33.369Z,100507.72
2017-12-25T21:52:01.759Z,100500.83
2017-12-25T21:54:30.877Z,100488.61
2017-12-25T21:57:00.025Z,100491.61
2017-12-25T21:59:28.339Z,100475.66
2017-12-25T22:01:56.685Z,100471.75
2017-12-25T22:04:25.077Z,100476.30
2017-12-25T22:06:53.427Z,100464.83
2017-12-25T22:09:21.727Z,100454.67
2017-12-25T22:11:50.019Z,100443.55
2017-12-25T22:14:18.326Z,100443.08
2017-12-25T22:16:46.707Z,100441.52
2017-12-25T22:19:15.020Z,100453.19
2017-12-25T22:21:44.880Z,100453.69
2017-12-25T22:24:13.145Z,100452.86
2017-12-25T22:26:41.457Z,100455.27
2017-12-25T22:29:09.780Z,100444.48
2017-12-25T22:31:38.867Z,100432.24
2017-12-25T22:34:07.995Z,100429.45
2017-12-25T22:36:36.299Z,100435.50
2017-12-25T22:39:04.622Z,100427.64
2017-12-25T22:41:32.898Z,100427.47
2017-12-25T22:44:01.223Z,100426.38
2017-12-25T22:46:29.525Z,100418.53
2017-12-25T22:48:57.839Z,100417.30
2017-12-25T22:51:26.140Z,100421.68
2017-12-25T22:53:55.208Z,100404.72
2017-12-25T22:56:23.523Z,100400.66
2017-12-25T22:58:52.682Z,100398.75
2017-12-25T23:01:20.997Z,100409.27
2017-12-25T23:03:50.097Z,100403.73
2017-12-25T23:06:19.171Z,100390.92
2017-12-25T23:08:47.471Z,100392.74
2017-12-25T23:11:15.792Z,100379.51
2017-12-25T23:13:44.869Z,100370.25
2017-12-25T23:16:13.951Z,100363.13
2017-12-25T23:18:42.300Z,100369.90
2017-12-25T23:21:10.622Z,100376.78
2017-12-25T23:23:39.679Z,100368.41
2017-12-25T23:26:08.013Z,100362.52
2017-12-25T23:28:36.333Z,100347.05
2017-12-25T23:31:04.641Z,100346.05
2017-12-25T23:33:32.949Z,100343.73
2017-12-25T23:36:02.052Z,100340.91
2017-12-25T23:38:31.127Z,100329.44
2017-12-25T23:40:59.446Z,100333.17
2017-12-25T23:43:27.754Z,100305.14
2017-12-25T23:45:56.041Z,100321.82
2017-12-25T23:48:24.335Z,100337.41
2017-12-25T23:50:52.696Z,100321.76
2017-12-25T23:53:20.991Z,100307.11
2017-12-25T23:55:49.297Z,100305.72
2017-12-25T23:58:18.136Z,100297.50
